createdAt,value
2018-07-01T00:01:37.646Z,17.10
2018-07-01T00:04:06.114Z,17.10
2018-07-01T00:06:34.637Z,17.00
2018-07-01T00:09:03.156Z,17.00
2018-07-01T00:11:31.707Z,16.90
2018-07-01T00:14:00.238Z,16.90
2018-07-01T00:16:28.668Z,16.80
2018-07-01T00:18:57.190Z,16.80
2018-07-01T00:21:25.722Z,16.80
2018-07-01T00:23:54.105Z,16.70
2018-07-01T00:26:22.765Z,16.70
2018-07-01T00:28:51.223Z,16.60
2018-07-01T00:31:19.632Z,16.60
2018-07-01T00:33:48.002Z,16.60
2018-07-01T00:36:16.379Z,16.50
2018-07-01T00:38:44.789Z,16.40
2018-07-01T00:41:13.209Z,16.40
2018-07-01T00:43:41.624Z,16.40
2018-07-01T00:46:10.061Z,16.40
2018-07-01T00:51:06.535Z,16.40
2018-07-01T00:53:34.924Z,16.40
2018-07-01T00:56:03.312Z,16.40
2018-07-01T00:58:32.132Z,16.40
2018-07-01T01:01:02.086Z,16.30
2018-07-01T01:03:30.780Z,16.20
2018-07-01T01:05:59.211Z,16.20
2018-07-01T01:08:27.730Z,16.20
2018-07-01T01:10:56.145Z,16.10
2018-07-01T01:13:24.598Z,16.10
2018-07-01T01:15:53.145Z,16.10
2018-07-01T01:18:24.560Z,16.00
2018-07-01T01:20:52.950Z,15.90
2018-07-01T01:23:21.417Z,15.90
2018-07-01T01:25:49.777Z,15.90
2018-07-01T01:28:18.201Z,15.90
2018-07-01T01:30:46.766Z,15.90
2018-07-01T01:33:15.178Z,15.90
2018-07-01T01:35:43.759Z,15.90
2018-07-01T01:38:12.383Z,15.80
2018-07-01T01:40:45.380Z,15.80
2018-07-01T01:43:18.336Z,15.70
2018-07-01T01:45:53.689Z,15.70
2018-07-01T01:51:02.273Z,15.70
2018-07-01T01:53:38.588Z,15.70
2018-07-01T01:56:12.728Z,15.60
2018-07-01T01:58:49.265Z,15.60
2018-07-01T02:01:33.895Z,15.60
2018-07-01T02:04:06.808Z,15.60
2018-07-01T02:06:59.970Z,15.60
2018-07-01T02:09:35.305Z,15.50
2018-07-01T02:14:57.072Z,15.50
2018-07-01T02:17:31.627Z,15.50
2018-07-01T02:20:03.233Z,15.50
2018-07-01T02:22:52.395Z,15.40
2018-07-01T02:25:23.412Z,15.40
2018-07-01T02:27:51.856Z,15.30
2018-07-01T02:30:20.197Z,15.30
2018-07-01T02:32:48.778Z,15.20
2018-07-01T02:35:17.257Z,15.10
2018-07-01T02:37:45.799Z,15.10
2018-07-01T02:40:14.179Z,15.10
2018-07-01T02:42:42.845Z,15.10
2018-07-01T02:45:11.277Z,15.10
2018-07-01T02:47:39.649Z,15.10
2018-07-01T02:50:08.141Z,15.10
2018-07-01T02:52:37.229Z,15.00
2018-07-01T02:55:05.685Z,15.00
2018-07-01T02:57:34.089Z,15.00
2018-07-01T03:00:02.531Z,15.00
2018-07-01T03:02:30.923Z,15.00
2018-07-01T03:04:59.290Z,14.90
2018-07-01T03:07:27.674Z,14.90
2018-07-01T03:09:55.992Z,14.90
2018-07-01T03:12:24.398Z,14.90
2018-07-01T03:14:52.863Z,14.90
2018-07-01T03:17:21.213Z,14.90
2018-07-01T03:19:49.678Z,14.90
2018-07-01T03:22:18.092Z,14.80
2018-07-01T03:24:46.425Z,14.80
2018-07-01T03:27:14.808Z,14.80
2018-07-01T03:29:43.199Z,14.80
2018-07-01T03:32:11.738Z,14.80
2018-07-01T03:34:40.113Z,14.70
2018-07-01T03:37:08.476Z,14.60
2018-07-01T03:39:36.884Z,14.60
2018-07-01T03:42:16.864Z,14.60
2018-07-01T03:44:45.401Z,14.60
2018-07-01T03:47:19.261Z,14.60
2018-07-01T03:49:47.765Z,14.60
2018-07-01T03:52:16.313Z,14.60
2018-07-01T03:54:44.899Z,14.60
2018-07-01T03:57:13.328Z,14.50
2018-07-01T03:59:41.822Z,14.50
2018-07-01T04:02:10.431Z,14.50
2018-07-01T04:04:38.886Z,14.60
2018-07-01T04:07:07.350Z,14.60
2018-07-01T04:09:35.774Z,14.60
2018-07-01T04:12:04.154Z,14.70
2018-07-01T04:14:32.816Z,14.80
2018-07-01T04:17:01.216Z,14.70
2018-07-01T04:19:34.029Z,14.70
2018-07-01T04:22:02.536Z,14.70
2018-07-01T04:24:31.387Z,14.70
2018-07-01T04:27:00.366Z,14.60
2018-07-01T04:29:29.323Z,14.60
2018-07-01T04:31:58.049Z,14.70
2018-07-01T04:34:26.550Z,14.70
2018-07-01T04:36:55.090Z,14.70
2018-07-01T04:39:23.651Z,14.80
2018-07-01T04:41:52.138Z,14.80
2018-07-01T04:44:27.220Z,14.90
2018-07-01T04:49:27.100Z,14.90
2018-07-01T04:51:55.501Z,14.90
2018-07-01T04:54:23.875Z,14.90
2018-07-01T04:56:52.358Z,15.00
2018-07-01T04:59:20.803Z,15.00
2018-07-01T05:01:49.218Z,14.90
2018-07-01T05:04:17.770Z,15.00
2018-07-01T05:06:46.182Z,15.00
2018-07-01T05:09:14.844Z,15.10
2018-07-01T05:11:43.800Z,15.10
2018-07-01T05:14:12.569Z,15.20
2018-07-01T05:16:41.101Z,15.20
2018-07-01T05:19:09.984Z,15.20
2018-07-01T05:21:38.360Z,15.20
2018-07-01T05:24:06.924Z,15.40
2018-07-01T05:26:35.337Z,15.50
2018-07-01T05:29:03.782Z,15.50
2018-07-01T05:31:32.187Z,15.60
2018-07-01T05:34:00.590Z,15.70
2018-07-01T05:36:28.953Z,15.70
2018-07-01T05:38:57.286Z,15.70
2018-07-01T05:41:25.939Z,15.80
2018-07-01T05:43:54.394Z,15.80
2018-07-01T05:46:25.079Z,15.70
2018-07-01T05:48:53.555Z,15.60
2018-07-01T05:51:21.887Z,15.70
2018-07-01T05:53:50.271Z,15.80
2018-07-01T05:56:18.803Z,15.80
2018-07-01T05:58:47.873Z,15.90
2018-07-01T06:01:16.198Z,16.00
2018-07-01T06:03:44.797Z,16.10
2018-07-01T06:06:13.254Z,16.10
2018-07-01T06:08:41.902Z,16.10
2018-07-01T06:11:10.466Z,16.10
2018-07-01T06:13:38.850Z,16.10
2018-07-01T06:16:07.214Z,16.10
2018-07-01T06:18:35.889Z,16.10
2018-07-01T06:21:04.294Z,16.30
2018-07-01T06:23:33.193Z,16.40
2018-07-01T06:26:01.772Z,16.60
2018-07-01T06:28:30.463Z,16.60
2018-07-01T06:30:58.886Z,16.50
2018-07-01T06:33:27.277Z,16.60
2018-07-01T06:35:57.539Z,16.70
2018-07-01T06:38:26.082Z,16.70
2018-07-01T06:40:56.091Z,16.90
2018-07-01T06:43:25.209Z,16.80
2018-07-01T06:45:53.683Z,16.90
2018-07-01T06:48:22.115Z,17.00
2018-07-01T06:50:51.219Z,17.00
2018-07-01T06:53:19.964Z,17.10
2018-07-01T06:55:48.343Z,17.20
2018-07-01T06:58:16.710Z,17.30
2018-07-01T07:00:45.491Z,17.60
2018-07-01T07:03:13.988Z,17.60
2018-07-01T07:05:42.983Z,17.80
2018-07-01T07:08:11.547Z,18.00
2018-07-01T07:10:40.430Z,18.10
2018-07-01T07:13:11.776Z,18.20
2018-07-01T07:15:41.212Z,18.30
2018-07-01T07:31:15.422Z,18.40
2018-07-01T07:33:44.006Z,18.80
2018-07-01T07:36:12.488Z,19.00
2018-07-01T07:38:41.470Z,19.10
2018-07-01T07:41:12.272Z,19.10
2018-07-01T07:43:40.872Z,19.00
2018-07-01T07:46:09.354Z,18.90
2018-07-01T07:48:38.354Z,19.00
2018-07-01T07:51:10.829Z,18.90
2018-07-01T07:53:41.191Z,18.80
2018-07-01T07:56:09.967Z,18.70
2018-07-01T07:58:39.071Z,18.90
2018-07-01T08:01:08.471Z,19.20
2018-07-01T08:03:37.729Z,19.50
2018-07-01T08:06:06.585Z,19.50
2018-07-01T08:08:37.080Z,19.60
2018-07-01T08:11:05.904Z,19.70
2018-07-01T08:13:34.355Z,19.80
2018-07-01T08:16:02.888Z,20.00
2018-07-01T08:18:31.722Z,20.30
2018-07-01T08:23:30.025Z,20.60
2018-07-01T08:25:59.254Z,20.80
2018-07-01T08:28:27.895Z,20.80
2018-07-01T08:30:58.555Z,20.90
2018-07-01T08:33:28.095Z,21.00
2018-07-01T08:35:56.594Z,20.90
2018-07-01T08:38:27.515Z,20.80
2018-07-01T08:41:03.152Z,20.90
2018-07-01T08:43:32.324Z,20.90
2018-07-01T08:46:00.808Z,21.00
2018-07-01T08:48:30.245Z,21.20
2018-07-01T08:50:59.322Z,21.20
2018-07-01T08:53:28.118Z,21.30
2018-07-01T08:55:58.394Z,21.30
2018-07-01T08:58:49.253Z,21.20
2018-07-01T09:01:18.241Z,21.20
2018-07-01T09:03:49.090Z,21.20
2018-07-01T09:06:17.911Z,21.30
2018-07-01T09:08:46.379Z,21.30
2018-07-01T09:11:15.038Z,21.40
2018-07-01T09:13:43.735Z,21.50
2018-07-01T09:16:12.433Z,21.60
2018-07-01T09:18:41.352Z,21.60
2018-07-01T09:21:10.259Z,21.60
2018-07-01T09:23:39.326Z,21.60
2018-07-01T09:26:07.827Z,21.40
2018-07-01T09:28:36.396Z,21.40
2018-07-01T09:31:05.411Z,21.40
2018-07-01T09:33:34.152Z,21.50
2018-07-01T09:36:02.618Z,21.50
2018-07-01T09:38:31.068Z,21.60
2018-07-01T09:40:59.489Z,21.70
2018-07-01T09:43:28.262Z,21.40
2018-07-01T09:45:58.960Z,21.30
2018-07-01T09:48:27.741Z,21.40
2018-07-01T09:50:56.357Z,21.50
2018-07-01T09:53:24.789Z,21.60
2018-07-01T09:55:53.211Z,21.70
2018-07-01T09:58:21.662Z,21.80
2018-07-01T10:00:50.098Z,21.90
2018-07-01T10:03:18.584Z,21.70
2018-07-01T10:05:47.164Z,21.60
2018-07-01T10:08:15.626Z,21.60
2018-07-01T10:10:44.446Z,21.50
2018-07-01T10:13:13.590Z,21.60
2018-07-01T10:15:42.050Z,21.60
2018-07-01T10:18:10.922Z,21.60
2018-07-01T10:20:39.432Z,21.50
2018-07-01T10:23:07.998Z,21.50
2018-07-01T10:25:36.576Z,21.50
2018-07-01T10:28:05.434Z,21.40
2018-07-01T10:30:34.131Z,21.40
2018-07-01T10:33:03.069Z,21.40
2018-07-01T10:35:31.584Z,21.40
2018-07-01T10:38:00.612Z,21.40
2018-07-01T10:40:29.223Z,21.30
2018-07-01T10:42:59.368Z,21.40
2018-07-01T10:45:28.162Z,21.50
2018-07-01T10:47:57.333Z,21.50
2018-07-01T10:50:26.561Z,21.60
2018-07-01T10:52:55.338Z,21.70
2018-07-01T10:55:25.232Z,21.70
2018-07-01T10:57:54.773Z,22.00
2018-07-01T11:00:24.877Z,22.30
2018-07-01T11:02:53.468Z,22.50
2018-07-01T11:05:22.091Z,22.60
2018-07-01T11:07:50.792Z,22.70
2018-07-01T11:10:19.651Z,22.80
2018-07-01T11:12:49.074Z,22.90
2018-07-01T11:15:17.514Z,22.90
2018-07-01T11:17:46.206Z,23.00
2018-07-01T11:20:15.004Z,22.90
2018-07-01T11:22:43.927Z,22.90
2018-07-01T11:25:12.837Z,22.90
2018-07-01T11:27:42.119Z,22.80
2018-07-01T11:30:10.737Z,22.90
2018-07-01T11:32:39.333Z,22.80
2018-07-01T11:35:08.057Z,23.00
2018-07-01T11:37:37.124Z,23.10
2018-07-01T11:40:05.840Z,23.20
2018-07-01T11:42:34.284Z,23.40
2018-07-01T11:45:03.663Z,23.20
2018-07-01T11:47:32.198Z,23.30
2018-07-01T11:50:00.995Z,23.30
2018-07-01T11:52:29.916Z,23.50
2018-07-01T11:54:58.693Z,23.60
2018-07-01T11:57:27.201Z,23.70
2018-07-01T11:59:55.691Z,23.70
2018-07-01T12:02:24.270Z,23.70
2018-07-01T12:05:16.209Z,23.80
2018-07-01T12:07:21.929Z,24.00
2018-07-01T12:09:50.530Z,24.10
2018-07-01T12:12:19.093Z,24.20
2018-07-01T12:14:47.634Z,24.50
2018-07-01T12:17:16.136Z,24.70
2018-07-01T12:19:44.622Z,24.70
2018-07-01T12:22:13.331Z,24.70
2018-07-01T12:24:42.171Z,24.70
2018-07-01T12:27:10.733Z,24.80
2018-07-01T12:29:39.768Z,25.00
2018-07-01T12:32:08.617Z,25.20
2018-07-01T12:34:37.130Z,25.20
2018-07-01T12:37:06.607Z,25.40
2018-07-01T12:39:35.646Z,25.70
2018-07-01T12:42:04.875Z,25.60
2018-07-01T12:44:33.556Z,25.40
2018-07-01T12:47:02.326Z,25.30
2018-07-01T13:02:20.995Z,25.10
2018-07-01T13:04:50.619Z,25.50
2018-07-01T13:07:19.546Z,25.80
2018-07-01T13:09:48.224Z,26.10
2018-07-01T13:12:17.027Z,26.20
2018-07-01T13:14:46.248Z,25.90
2018-07-01T13:17:15.038Z,26.00
2018-07-01T13:19:43.477Z,26.10
2018-07-01T13:22:12.874Z,26.00
2018-07-01T13:24:41.720Z,26.10
2018-07-01T13:27:10.536Z,26.60
2018-07-01T13:29:39.290Z,26.90
2018-07-01T13:32:09.758Z,26.80
2018-07-01T13:34:38.243Z,27.20
2018-07-01T13:37:07.368Z,27.60
2018-07-01T13:39:36.412Z,27.70
2018-07-01T13:42:05.134Z,27.90
2018-07-01T13:44:34.161Z,28.00
2018-07-01T13:47:03.191Z,28.20
2018-07-01T13:49:31.693Z,28.30
2018-07-01T13:52:03.981Z,28.30
2018-07-01T13:54:32.768Z,28.30
2018-07-01T13:57:01.697Z,28.70
2018-07-01T13:59:30.847Z,28.80
2018-07-01T14:01:59.604Z,29.10
2018-07-01T14:04:28.428Z,28.80
2018-07-01T14:06:57.568Z,28.40
2018-07-01T14:09:26.449Z,28.50
2018-07-01T14:11:55.289Z,28.60
2018-07-01T14:14:24.020Z,28.90
2018-07-01T14:16:52.745Z,29.30
2018-07-01T14:19:21.863Z,29.70
2018-07-01T14:21:52.492Z,29.80
2018-07-01T14:24:21.186Z,30.00
2018-07-01T14:26:50.225Z,29.30
2018-07-01T14:29:19.252Z,29.60
2018-07-01T14:31:48.572Z,29.90
2018-07-01T14:34:17.720Z,30.30
2018-07-01T14:36:46.474Z,30.60
2018-07-01T14:39:17.946Z,30.70
2018-07-01T14:41:46.618Z,30.90
2018-07-01T14:44:15.349Z,30.90
2018-07-01T14:46:46.871Z,31.10
2018-07-01T14:49:15.866Z,30.70
2018-07-01T14:51:44.979Z,30.50
2018-07-01T14:54:13.622Z,30.50
2018-07-01T14:56:42.371Z,30.60
2018-07-01T14:59:11.069Z,30.50
2018-07-01T15:01:39.557Z,30.30
2018-07-01T15:04:08.945Z,29.60
2018-07-01T15:06:37.707Z,29.50
2018-07-01T15:09:08.881Z,29.50
2018-07-01T15:11:37.740Z,29.20
2018-07-01T15:14:09.641Z,29.00
2018-07-01T15:16:45.580Z,28.90
2018-07-01T15:19:14.714Z,28.60
2018-07-01T15:21:43.506Z,28.40
2018-07-01T15:24:16.628Z,28.30
2018-07-01T15:26:46.081Z,28.10
2018-07-01T15:29:29.968Z,27.80
2018-07-01T15:31:59.324Z,27.40
2018-07-01T15:34:29.443Z,27.30
2018-07-01T15:36:58.544Z,26.80
2018-07-01T15:39:28.174Z,26.30
2018-07-01T15:41:57.311Z,26.00
2018-07-01T15:44:26.667Z,25.70
2018-07-01T15:46:56.459Z,25.60
2018-07-01T15:49:25.637Z,25.60
2018-07-01T15:51:54.972Z,26.40
2018-07-01T15:54:24.054Z,26.60
2018-07-01T15:56:53.552Z,26.80
2018-07-01T15:59:22.532Z,26.50
2018-07-01T16:01:53.849Z,25.90
2018-07-01T16:04:24.215Z,25.40
2018-07-01T16:06:53.347Z,25.20
2018-07-01T16:09:22.837Z,25.10
2018-07-01T16:11:53.024Z,25.00
2018-07-01T16:14:22.473Z,24.80
2018-07-01T16:16:51.423Z,24.60
2018-07-01T16:19:20.249Z,24.60
2018-07-01T16:21:49.933Z,24.60
2018-07-01T16:24:18.811Z,24.60
2018-07-01T16:26:52.764Z,24.80
2018-07-01T16:29:21.667Z,24.70
2018-07-01T16:31:51.924Z,24.80
2018-07-01T16:34:21.944Z,24.80
2018-07-01T16:36:50.947Z,24.70
2018-07-01T16:39:20.448Z,24.90
2018-07-01T16:44:18.736Z,25.40
2018-07-01T16:46:47.557Z,25.30
2018-07-01T16:49:16.822Z,25.00
2018-07-01T16:51:45.664Z,24.90
2018-07-01T16:54:14.496Z,24.90
2018-07-01T16:56:43.396Z,24.70
2018-07-01T16:59:12.394Z,24.30
2018-07-01T17:01:42.754Z,24.10
2018-07-01T17:04:17.917Z,24.00
2018-07-01T17:06:47.016Z,23.90
2018-07-01T17:09:17.593Z,23.90
2018-07-01T17:11:46.788Z,24.00
2018-07-01T17:14:15.617Z,24.30
2018-07-01T17:16:44.338Z,24.40
2018-07-01T17:19:14.122Z,24.40
2018-07-01T17:21:43.151Z,24.30
2018-07-01T17:24:12.256Z,24.10
2018-07-01T17:26:41.369Z,24.10
2018-07-01T17:29:10.958Z,24.20
2018-07-01T17:31:44.759Z,24.50
2018-07-01T17:34:13.901Z,24.90
2018-07-01T17:36:42.726Z,25.10
2018-07-01T17:39:11.788Z,25.90
2018-07-01T17:41:41.460Z,25.90
2018-07-01T17:44:10.868Z,25.60
2018-07-01T17:46:39.713Z,25.20
2018-07-01T17:49:09.075Z,24.70
2018-07-01T17:51:38.218Z,24.60
2018-07-01T17:54:07.768Z,24.80
2018-07-01T17:56:37.848Z,24.90
2018-07-01T17:59:07.450Z,25.30
2018-07-01T18:01:36.776Z,25.70
2018-07-01T18:04:06.783Z,26.10
2018-07-01T18:06:35.533Z,26.40
2018-07-01T18:09:05.933Z,26.80
2018-07-01T18:11:34.940Z,27.00
2018-07-01T18:14:04.080Z,26.80
2018-07-01T18:16:33.884Z,26.50
2018-07-01T18:19:03.209Z,26.20
2018-07-01T18:21:32.430Z,26.30
2018-07-01T18:24:27.530Z,26.10
2018-07-01T18:26:30.777Z,25.80
2018-07-01T18:29:08.189Z,25.40
2018-07-01T18:31:30.963Z,25.00
2018-07-01T18:33:59.865Z,24.50
2018-07-01T18:36:28.995Z,24.00
2018-07-01T18:38:59.685Z,23.50
2018-07-01T18:41:28.525Z,23.10
2018-07-01T18:43:57.541Z,22.70
2018-07-01T18:46:26.847Z,22.40
2018-07-01T18:48:55.898Z,22.10
2018-07-01T18:51:24.618Z,21.90
2018-07-01T18:53:53.643Z,21.70
2018-07-01T18:56:22.995Z,21.50
2018-07-01T18:58:51.561Z,21.30
2018-07-01T19:01:20.245Z,21.20
2018-07-01T19:03:48.874Z,21.00
2018-07-01T19:06:17.606Z,20.90
2018-07-01T19:08:46.444Z,20.70
2018-07-01T19:11:17.951Z,20.60
2018-07-01T19:13:46.717Z,20.50
2018-07-01T19:16:15.466Z,20.40
2018-07-01T19:18:44.057Z,20.30
2018-07-01T19:21:12.930Z,20.20
2018-07-01T19:23:41.657Z,20.10
2018-07-01T19:26:10.729Z,20.10
2018-07-01T19:28:40.402Z,20.00
2018-07-01T19:31:09.856Z,19.90
2018-07-01T19:33:40.056Z,19.80
2018-07-01T19:36:08.873Z,19.80
2018-07-01T19:38:38.047Z,19.80
2018-07-01T19:41:06.820Z,19.70
2018-07-01T19:43:35.671Z,19.70
2018-07-01T19:46:09.716Z,19.60
2018-07-01T19:48:38.942Z,19.60
2018-07-01T19:51:07.460Z,19.60
2018-07-01T19:53:35.891Z,19.60
2018-07-01T19:56:04.748Z,19.60
2018-07-01T19:58:33.199Z,19.60
2018-07-01T20:01:03.210Z,19.50
2018-07-01T20:03:31.626Z,19.40
2018-07-01T20:06:00.262Z,19.30
2018-07-01T20:08:31.837Z,19.20
2018-07-01T20:11:02.458Z,19.10
2018-07-01T20:13:31.229Z,19.00
2018-07-01T20:15:59.811Z,19.00
2018-07-01T20:18:28.778Z,18.90
2018-07-01T20:20:59.850Z,18.80
2018-07-01T20:23:34.450Z,18.80
2018-07-01T20:26:04.961Z,18.60
2018-07-01T20:28:40.910Z,18.70
2018-07-01T20:31:09.802Z,18.70
2018-07-01T20:33:39.780Z,18.60
2018-07-01T20:36:10.344Z,18.60
2018-07-01T20:38:39.384Z,18.60
2018-07-01T20:41:09.348Z,18.60
2018-07-01T20:43:43.823Z,18.50
2018-07-01T20:46:12.661Z,18.50
2018-07-01T20:48:41.904Z,18.50
2018-07-01T20:51:11.291Z,18.50
2018-07-01T20:53:40.801Z,18.40
2018-07-01T20:56:09.659Z,18.40
2018-07-01T20:58:38.351Z,18.50
2018-07-01T21:01:10.046Z,18.40
2018-07-01T21:03:41.683Z,18.40
2018-07-01T21:06:14.039Z,18.40
2018-07-01T21:08:42.895Z,18.40
2018-07-01T21:11:11.654Z,18.50
2018-07-01T21:13:40.258Z,18.50
2018-07-01T21:16:09.040Z,18.40
2018-07-01T21:18:38.212Z,18.30
2018-07-01T21:21:06.778Z,18.20
2018-07-01T21:23:35.421Z,18.10
2018-07-01T21:26:03.871Z,18.10
2018-07-01T21:28:32.711Z,18.00
2018-07-01T21:31:01.479Z,18.00
2018-07-01T21:33:29.999Z,18.00
2018-07-01T21:35:58.791Z,17.90
2018-07-01T21:38:27.537Z,17.90
2018-07-01T21:40:56.511Z,17.90
2018-07-01T21:43:25.471Z,17.80
2018-07-01T21:45:54.223Z,17.80
2018-07-01T21:48:22.955Z,17.80
2018-07-01T21:50:51.841Z,17.70
2018-07-01T21:53:20.484Z,17.70
2018-07-01T21:55:49.294Z,17.60
2018-07-01T21:58:18.051Z,17.60
2018-07-01T22:00:47.819Z,17.40
2018-07-01T22:03:16.562Z,17.40
2018-07-01T22:05:45.430Z,17.30
2018-07-01T22:08:14.435Z,17.40
2018-07-01T22:10:54.443Z,17.40
2018-07-01T22:14:36.781Z,17.40
2018-07-01T22:17:07.251Z,17.30
2018-07-01T22:19:40.400Z,17.30
2018-07-01T22:22:08.958Z,17.30
2018-07-01T22:24:38.488Z,17.30
2018-07-01T22:27:07.808Z,17.30
2018-07-01T22:29:36.707Z,17.30
2018-07-01T22:32:05.334Z,17.20
2018-07-01T22:34:33.925Z,17.20
2018-07-01T22:37:02.673Z,17.20
2018-07-01T22:39:31.728Z,17.20
2018-07-01T22:42:01.810Z,17.20
2018-07-01T22:44:30.903Z,17.20
2018-07-01T22:46:59.633Z,17.20
2018-07-01T22:49:28.237Z,17.10
2018-07-01T22:51:56.933Z,17.10
2018-07-01T22:54:25.711Z,17.10
2018-07-01T22:56:54.414Z,16.90
2018-07-01T22:59:23.231Z,16.80
2018-07-01T23:03:05.573Z,16.70
2018-07-01T23:05:34.323Z,16.60
2018-07-01T23:08:02.872Z,16.60
2018-07-01T23:10:31.988Z,16.50
2018-07-01T23:13:01.166Z,16.50
2018-07-01T23:15:30.047Z,16.40
2018-07-01T23:17:58.574Z,16.40
2018-07-01T23:22:55.594Z,16.30
2018-07-01T23:25:25.277Z,16.20
2018-07-01T23:27:53.960Z,16.10
2018-07-01T23:30:22.580Z,16.00
2018-07-01T23:32:51.349Z,16.00
2018-07-01T23:37:48.205Z,15.90
2018-07-01T23:40:16.945Z,15.90
2018-07-01T23:42:45.557Z,15.90
2018-07-01T23:45:15.200Z,15.90
2018-07-01T23:47:44.129Z,15.90
2018-07-01T23:50:12.789Z,15.80
2018-07-01T23:52:41.471Z,15.80
2018-07-01T23:55:10.433Z,15.80
2018-07-01T23:57:39.046Z,15.80
